createdAt,value
2017-11-23T00:01:14.611Z,1.13
2017-11-23T00:03:42.127Z,1.47
2017-11-23T00:06:10.396Z,2.30
2017-11-23T00:08:38.692Z,1.40
2017-11-23T00:11:06.185Z,1.77
2017-11-23T00:13:33.680Z,1.20
2017-11-23T00:16:01.968Z,1.37
2017-11-23T00:18:30.847Z,1.43
2017-11-23T00:20:59.124Z,2.30
2017-11-23T00:23:27.379Z,2.03
2017-11-23T00:25:54.899Z,3.70
2017-11-23T00:28:22.395Z,1.13
2017-11-23T00:30:49.913Z,1.23
2017-11-23T00:33:17.432Z,3.97
2017-11-23T00:35:45.712Z,1.80
2017-11-23T00:38:13.976Z,1.10
2017-11-23T00:40:41.492Z,1.57
2017-11-23T00:43:08.992Z,1.00
2017-11-23T00:45:36.503Z,1.73
2017-11-23T00:48:03.993Z,2.37
2017-11-23T00:50:31.524Z,1.63
2017-11-23T00:52:59.028Z,2.80
2017-11-23T00:55:27.312Z,1.47
2017-11-23T00:57:55.575Z,1.93
2017-11-23T01:00:23.085Z,2.03
2017-11-23T01:02:50.586Z,1.40
2017-11-23T01:05:18.112Z,1.47
2017-11-23T01:07:45.604Z,1.50
2017-11-23T01:10:13.096Z,1.07
2017-11-23T01:12:40.617Z,3.30
2017-11-23T01:15:08.108Z,2.37
2017-11-23T01:17:35.620Z,1.50
2017-11-23T01:20:03.127Z,2.00
2017-11-23T01:22:37.410Z,1.67
2017-11-23T01:25:04.899Z,3.77
2017-11-23T01:27:32.412Z,1.37
2017-11-23T01:29:59.907Z,2.30
2017-11-23T01:32:28.201Z,4.40
2017-11-23T01:34:55.705Z,1.13
2017-11-23T01:37:23.218Z,1.47
2017-11-23T01:39:50.720Z,2.17
2017-11-23T01:42:18.240Z,1.30
2017-11-23T01:44:45.736Z,1.17
2017-11-23T01:47:13.253Z,2.60
2017-11-23T01:49:40.747Z,1.40
2017-11-23T01:52:08.262Z,1.80
2017-11-23T01:54:35.766Z,1.43
2017-11-23T01:57:03.275Z,0.70
2017-11-23T01:59:30.777Z,0.93
2017-11-23T02:01:58.292Z,0.93
2017-11-23T02:04:25.793Z,1.00
2017-11-23T02:06:53.288Z,2.50
2017-11-23T02:09:21.568Z,0.97
2017-11-23T02:11:49.832Z,3.33
2017-11-23T02:14:18.109Z,1.27
2017-11-23T02:16:46.377Z,2.10
2017-11-23T02:19:13.895Z,1.20
2017-11-23T02:21:41.392Z,1.60
2017-11-23T02:24:08.907Z,5.30
2017-11-23T02:26:37.433Z,1.07
2017-11-23T02:29:04.951Z,2.40
2017-11-23T02:31:32.452Z,1.10
2017-11-23T02:34:00.757Z,2.50
2017-11-23T02:36:28.265Z,1.80
2017-11-23T02:38:55.788Z,1.20
2017-11-23T02:41:23.281Z,0.90
2017-11-23T02:43:50.797Z,1.03
2017-11-23T02:46:18.305Z,0.60
2017-11-23T02:48:45.821Z,1.13
2017-11-23T02:51:13.315Z,1.20
2017-11-23T02:53:40.833Z,0.40
2017-11-23T02:56:08.328Z,4.00
2017-11-23T02:58:35.849Z,0.70
2017-11-23T03:01:03.356Z,1.80
2017-11-23T03:03:30.892Z,0.90
2017-11-23T03:05:58.418Z,0.80
2017-11-23T03:08:25.926Z,3.67
2017-11-23T03:10:53.446Z,2.30
2017-11-23T03:13:20.947Z,2.00
2017-11-23T03:15:48.461Z,2.33
2017-11-23T03:18:15.956Z,2.70
2017-11-23T03:20:43.480Z,2.10
2017-11-23T03:23:10.997Z,1.83
2017-11-23T03:25:38.505Z,1.90
2017-11-23T03:28:06.006Z,1.77
2017-11-23T03:30:34.294Z,2.00
2017-11-23T03:33:02.560Z,1.37
2017-11-23T03:35:30.841Z,1.13
2017-11-23T03:37:59.104Z,1.60
2017-11-23T03:40:26.620Z,1.47
2017-11-23T03:42:54.112Z,1.43
2017-11-23T03:45:21.631Z,2.23
2017-11-23T03:47:49.135Z,1.23
2017-11-23T03:50:16.670Z,1.27
2017-11-23T03:52:44.180Z,0.97
2017-11-23T03:55:11.704Z,1.13
2017-11-23T03:57:39.199Z,1.57
2017-11-23T04:00:06.725Z,3.00
2017-11-23T04:02:34.685Z,1.60
2017-11-23T04:05:02.187Z,1.57
2017-11-23T04:07:29.696Z,1.00
2017-11-23T04:09:57.193Z,1.00
2017-11-23T04:12:24.708Z,1.97
2017-11-23T04:14:52.204Z,1.27
2017-11-23T04:17:20.492Z,1.00
2017-11-23T04:19:48.017Z,1.10
2017-11-23T04:22:15.537Z,1.63
2017-11-23T04:24:43.040Z,1.77
2017-11-23T04:27:11.321Z,1.67
2017-11-23T04:29:39.589Z,1.60
2017-11-23T04:32:07.105Z,2.30
2017-11-23T04:34:35.033Z,1.40
2017-11-23T04:37:02.589Z,1.63
2017-11-23T04:39:30.848Z,1.83
2017-11-23T04:41:58.388Z,1.33
2017-11-23T04:44:25.879Z,0.97
2017-11-23T04:46:54.160Z,1.30
2017-11-23T04:49:22.428Z,2.23
2017-11-23T04:51:50.713Z,2.20
2017-11-23T04:54:18.975Z,2.60
2017-11-23T04:56:47.257Z,1.73
2017-11-23T04:59:15.528Z,1.63
2017-11-23T05:01:43.808Z,1.73
2017-11-23T05:04:12.086Z,1.63
2017-11-23T05:06:40.349Z,1.77
2017-11-23T05:09:07.859Z,6.70
2017-11-23T05:11:35.351Z,1.93
2017-11-23T05:14:02.867Z,2.60
2017-11-23T05:16:30.365Z,2.97
2017-11-23T05:18:57.893Z,1.77
2017-11-23T05:21:25.389Z,1.40
2017-11-23T05:23:52.905Z,1.50
2017-11-23T05:26:20.411Z,3.30
2017-11-23T05:28:47.932Z,4.90
2017-11-23T05:31:15.423Z,2.87
2017-11-23T05:33:42.944Z,1.87
2017-11-23T05:36:10.439Z,2.93
2017-11-23T05:38:37.952Z,4.67
2017-11-23T05:41:05.444Z,2.20
2017-11-23T05:43:32.958Z,2.73
2017-11-23T05:46:00.452Z,1.40
2017-11-23T05:48:28.745Z,3.00
2017-11-23T05:50:56.261Z,1.87
2017-11-23T05:53:23.775Z,5.67
2017-11-23T05:55:52.033Z,2.20
2017-11-23T05:58:19.561Z,2.93
2017-11-23T06:00:47.062Z,2.23
2017-11-23T06:03:15.344Z,3.87
2017-11-23T06:05:43.636Z,2.73
2017-11-23T06:08:11.136Z,3.13
2017-11-23T06:10:38.681Z,2.33
2017-11-23T06:13:06.184Z,2.57
2017-11-23T06:15:33.721Z,3.37
2017-11-23T06:18:01.232Z,4.73
2017-11-23T06:20:28.752Z,2.87
2017-11-23T06:22:56.262Z,4.70
2017-11-23T06:25:23.781Z,3.07
2017-11-23T06:27:52.053Z,3.47
2017-11-23T06:30:20.340Z,3.83
2017-11-23T06:32:48.600Z,3.00
2017-11-23T06:35:16.136Z,3.60
2017-11-23T06:37:43.633Z,2.83
2017-11-23T06:40:11.909Z,6.73
2017-11-23T06:42:40.181Z,11.50
2017-11-23T06:45:08.501Z,2.60
2017-11-23T06:47:36.005Z,3.77
2017-11-23T06:50:03.528Z,3.87
2017-11-23T06:52:31.037Z,2.50
2017-11-23T06:54:59.340Z,4.67
2017-11-23T06:57:26.836Z,3.10
2017-11-23T06:59:54.329Z,3.30
2017-11-23T07:02:22.604Z,4.27
2017-11-23T07:04:50.864Z,8.30
2017-11-23T07:07:18.381Z,3.03
2017-11-23T07:09:45.903Z,4.63
2017-11-23T07:12:13.424Z,2.00
2017-11-23T07:14:40.921Z,5.87
2017-11-23T07:17:08.436Z,2.70
2017-11-23T07:19:35.937Z,2.60
2017-11-23T07:22:03.456Z,3.13
2017-11-23T07:24:30.956Z,3.07
2017-11-23T07:26:58.482Z,1.70
2017-11-23T07:29:25.990Z,3.07
2017-11-23T07:31:53.512Z,6.20
2017-11-23T07:34:21.781Z,4.57
2017-11-23T07:36:50.064Z,4.97
2017-11-23T07:39:18.328Z,5.33
2017-11-23T07:41:45.851Z,4.23
2017-11-23T07:44:13.352Z,3.80
2017-11-23T07:46:41.632Z,3.53
2017-11-23T07:49:09.892Z,2.97
2017-11-23T07:51:37.421Z,4.33
2017-11-23T07:54:05.693Z,6.73
2017-11-23T07:56:33.202Z,4.10
2017-11-23T07:59:01.493Z,2.60
2017-11-23T08:01:29.000Z,2.97
2017-11-23T08:03:56.527Z,4.10
2017-11-23T08:06:24.034Z,4.93
2017-11-23T08:08:51.563Z,4.63
2017-11-23T08:11:19.069Z,2.70
2017-11-23T08:13:47.368Z,4.90
2017-11-23T08:16:14.877Z,4.57
2017-11-23T08:18:42.392Z,4.30
2017-11-23T08:21:09.900Z,3.30
2017-11-23T08:23:37.423Z,5.50
2017-11-23T08:26:04.925Z,2.83
2017-11-23T08:28:32.445Z,4.90
2017-11-23T08:31:00.712Z,2.83
2017-11-23T08:33:28.228Z,6.60
2017-11-23T08:35:56.488Z,4.23
2017-11-23T08:38:24.004Z,5.20
2017-11-23T08:40:51.508Z,3.83
2017-11-23T08:43:19.024Z,4.20
2017-11-23T08:45:46.531Z,7.73
2017-11-23T08:48:14.069Z,5.20
2017-11-23T08:50:41.565Z,7.00
2017-11-23T08:53:09.076Z,5.43
2017-11-23T08:55:36.592Z,5.33
2017-11-23T08:58:04.096Z,5.47
2017-11-23T09:00:31.617Z,5.30
2017-11-23T09:02:59.116Z,3.50
2017-11-23T09:05:29.469Z,7.33
2017-11-23T09:07:56.964Z,2.73
2017-11-23T09:10:24.479Z,4.23
2017-11-23T09:12:52.744Z,2.63
2017-11-23T09:15:21.038Z,4.53
2017-11-23T09:17:49.303Z,4.33
2017-11-23T09:20:17.596Z,4.20
2017-11-23T09:22:46.657Z,2.17
2017-11-23T09:25:14.965Z,2.10
2017-11-23T09:27:43.233Z,2.50
2017-11-23T09:30:11.513Z,3.23
2017-11-23T09:32:39.785Z,4.20
2017-11-23T09:35:08.069Z,3.50
2017-11-23T09:37:35.594Z,5.63
2017-11-23T09:40:03.114Z,4.43
2017-11-23T09:42:30.618Z,2.63
2017-11-23T09:44:58.136Z,3.10
2017-11-23T09:47:25.636Z,4.63
2017-11-23T09:49:53.151Z,4.40
2017-11-23T09:52:20.665Z,6.03
2017-11-23T09:54:48.962Z,5.93
2017-11-23T09:57:16.478Z,5.03
2017-11-23T09:59:43.984Z,2.40
2017-11-23T10:02:11.504Z,2.90
2017-11-23T10:04:39.014Z,2.47
2017-11-23T10:07:06.533Z,2.83
2017-11-23T10:09:34.808Z,4.23
2017-11-23T10:12:03.100Z,2.80
2017-11-23T10:14:36.382Z,2.63
2017-11-23T10:17:04.672Z,1.83
2017-11-23T10:19:32.181Z,3.43
2017-11-23T10:21:59.705Z,3.77
2017-11-23T10:24:27.214Z,4.13
2017-11-23T10:26:55.516Z,4.77
2017-11-23T10:29:23.020Z,4.80
2017-11-23T10:31:50.544Z,4.13
2017-11-23T10:34:18.058Z,2.10
2017-11-23T10:36:45.581Z,3.50
2017-11-23T10:39:13.092Z,3.10
2017-11-23T10:41:41.375Z,8.00
2017-11-23T10:44:09.653Z,3.80
2017-11-23T10:46:37.941Z,4.23
2017-11-23T10:49:05.456Z,3.57
2017-11-23T10:51:33.000Z,4.53
2017-11-23T10:54:00.505Z,3.43
2017-11-23T10:56:28.767Z,6.13
2017-11-23T10:58:57.070Z,8.73
2017-11-23T11:01:24.583Z,2.60
2017-11-23T11:03:52.121Z,2.93
2017-11-23T11:06:19.624Z,3.80
2017-11-23T11:08:47.909Z,2.93
2017-11-23T11:11:16.185Z,3.10
2017-11-23T11:13:44.477Z,3.33
2017-11-23T11:16:11.990Z,4.27
2017-11-23T11:18:39.517Z,3.57
2017-11-23T11:21:07.020Z,5.50
2017-11-23T11:23:35.312Z,2.17
2017-11-23T11:26:03.584Z,2.77
2017-11-23T11:28:31.876Z,4.60
2017-11-23T11:30:59.380Z,2.07
2017-11-23T11:33:26.906Z,3.80
2017-11-23T11:35:54.413Z,2.30
2017-11-23T11:38:21.941Z,2.80
2017-11-23T11:40:49.447Z,5.63
2017-11-23T11:43:17.734Z,3.43
2017-11-23T11:45:45.240Z,6.00
2017-11-23T11:48:12.774Z,3.33
2017-11-23T11:50:40.285Z,2.63
2017-11-23T11:53:07.808Z,3.30
2017-11-23T11:55:35.328Z,2.30
2017-11-23T11:58:02.841Z,6.57
2017-11-23T12:00:30.365Z,3.53
2017-11-23T12:02:57.890Z,3.43
2017-11-23T12:05:26.173Z,2.30
2017-11-23T12:07:54.441Z,1.80
2017-11-23T12:10:22.728Z,4.70
2017-11-23T12:12:51.068Z,1.87
2017-11-23T12:15:36.975Z,2.00
2017-11-23T12:18:17.201Z,2.60
2017-11-23T12:20:56.600Z,3.70
2017-11-23T12:23:35.779Z,4.40
2017-11-23T12:26:03.302Z,3.40
2017-11-23T12:31:36.469Z,3.17
2017-11-23T12:34:04.745Z,5.20
2017-11-23T12:36:33.034Z,4.53
2017-11-23T12:39:01.309Z,4.43
2017-11-23T12:41:29.610Z,2.80
2017-11-23T12:43:57.123Z,3.10
2017-11-23T12:46:24.645Z,3.90
2017-11-23T12:48:52.149Z,2.93
2017-11-23T12:51:20.445Z,3.70
2017-11-23T12:53:47.953Z,1.73
2017-11-23T12:56:15.473Z,2.37
2017-11-23T12:58:42.977Z,1.90
2017-11-23T13:01:10.497Z,5.60
2017-11-23T13:03:38.007Z,3.17
2017-11-23T13:06:05.530Z,1.80
2017-11-23T13:08:33.037Z,2.43
2017-11-23T13:11:01.330Z,3.30
2017-11-23T13:13:28.844Z,2.13
2017-11-23T13:15:56.349Z,2.70
2017-11-23T13:18:23.865Z,2.30
2017-11-23T13:20:51.373Z,2.87
2017-11-23T13:23:18.898Z,1.63
2017-11-23T13:25:47.176Z,2.30
2017-11-23T13:28:15.455Z,2.93
2017-11-23T13:30:43.728Z,1.10
2017-11-23T13:33:12.016Z,4.20
2017-11-23T13:35:40.288Z,2.03
2017-11-23T13:38:08.589Z,4.33
2017-11-23T13:40:36.094Z,3.87
2017-11-23T13:43:03.625Z,1.40
2017-11-23T13:45:31.133Z,2.70
2017-11-23T13:47:59.421Z,2.73
2017-11-23T13:50:27.692Z,1.37
2017-11-23T13:52:55.986Z,2.30
2017-11-23T13:55:23.492Z,2.83
2017-11-23T13:57:51.017Z,1.90
2017-11-23T14:00:18.525Z,2.20
2017-11-23T14:02:46.816Z,3.43
2017-11-23T14:05:15.081Z,1.70
2017-11-23T14:07:43.397Z,1.93
2017-11-23T14:10:10.896Z,3.30
2017-11-23T14:12:38.438Z,3.60
2017-11-23T14:15:05.948Z,3.53
2017-11-23T14:17:34.225Z,2.03
2017-11-23T14:20:02.515Z,2.97
2017-11-23T14:22:30.033Z,1.70
2017-11-23T14:24:57.547Z,1.93
2017-11-23T14:27:25.052Z,1.70
2017-11-23T14:29:52.576Z,4.60
2017-11-23T14:32:20.076Z,1.90
2017-11-23T14:34:48.371Z,2.43
2017-11-23T14:37:16.641Z,3.13
2017-11-23T14:39:44.923Z,4.30
2017-11-23T14:42:13.194Z,3.37
2017-11-23T14:44:41.480Z,4.90
2017-11-23T14:47:08.988Z,6.17
2017-11-23T14:49:36.505Z,3.60
2017-11-23T14:52:04.009Z,2.53
2017-11-23T14:54:31.535Z,4.83
2017-11-23T14:56:59.041Z,2.00
2017-11-23T14:59:26.561Z,3.03
2017-11-23T15:01:54.072Z,3.60
2017-11-23T15:04:22.360Z,3.57
2017-11-23T15:06:49.860Z,2.63
2017-11-23T15:09:17.412Z,1.90
2017-11-23T15:11:44.921Z,1.90
2017-11-23T15:14:13.184Z,6.67
2017-11-23T15:16:40.705Z,3.43
2017-11-23T15:19:08.212Z,2.60
2017-11-23T15:21:36.494Z,4.00
2017-11-23T15:24:04.769Z,5.67
2017-11-23T15:26:33.055Z,2.80
2017-11-23T15:29:00.558Z,2.90
2017-11-23T15:31:28.089Z,5.23
2017-11-23T15:33:55.596Z,1.80
2017-11-23T15:36:23.112Z,1.80
2017-11-23T15:38:50.615Z,3.27
2017-11-23T15:41:18.140Z,4.17
2017-11-23T15:43:45.647Z,6.03
2017-11-23T15:46:13.928Z,3.47
2017-11-23T15:48:42.192Z,4.20
2017-11-23T15:51:09.707Z,3.57
2017-11-23T15:53:37.208Z,3.87
2017-11-23T15:56:05.497Z,2.00
2017-11-23T15:58:33.773Z,3.73
2017-11-23T16:01:02.060Z,3.03
2017-11-23T16:03:29.577Z,2.60
2017-11-23T16:05:57.100Z,4.80
2017-11-23T16:08:24.625Z,3.20
2017-11-23T16:10:52.929Z,2.60
2017-11-23T16:13:20.469Z,11.37
2017-11-23T16:15:48.023Z,7.80
2017-11-23T16:18:16.316Z,3.50
2017-11-23T16:20:43.821Z,7.20
2017-11-23T16:23:11.336Z,9.23
2017-11-23T16:25:38.886Z,10.63
2017-11-23T16:28:06.412Z,23.40
2017-11-23T16:30:33.921Z,16.73
2017-11-23T16:33:01.486Z,28.73
2017-11-23T16:35:28.993Z,32.50
2017-11-23T16:37:57.288Z,69.93
2017-11-23T16:40:30.436Z,127.43
2017-11-23T16:43:14.653Z,77.30
2017-11-23T16:45:47.776Z,65.20
2017-11-23T16:48:20.955Z,58.30
2017-11-23T16:50:53.364Z,58.47
2017-11-23T16:56:33.193Z,273.83
2017-11-23T16:59:16.548Z,191.20
2017-11-23T17:01:49.724Z,127.53
2017-11-23T17:04:17.775Z,40.00
2017-11-23T17:06:50.993Z,13.93
2017-11-23T17:12:28.831Z,15.47
2017-11-23T17:15:12.012Z,17.27
2017-11-23T17:17:55.328Z,19.00
2017-11-23T17:20:22.852Z,9.80
2017-11-23T17:22:51.135Z,16.17
2017-11-23T17:25:19.424Z,17.80
2017-11-23T17:27:46.954Z,46.77
2017-11-23T17:30:15.318Z,113.10
2017-11-23T17:32:42.833Z,94.70
2017-11-23T17:35:10.458Z,102.53
2017-11-23T17:37:38.079Z,156.47
2017-11-23T17:40:05.827Z,177.57
2017-11-23T17:42:33.358Z,153.33
2017-11-23T17:45:00.946Z,126.00
2017-11-23T17:47:28.589Z,58.13
2017-11-23T17:49:56.152Z,33.20
2017-11-23T17:52:23.726Z,23.17
2017-11-23T17:54:51.241Z,17.67
2017-11-23T17:57:19.592Z,12.90
2017-11-23T17:59:48.197Z,8.53
2017-11-23T18:02:16.611Z,6.70
2017-11-23T18:04:44.363Z,10.53
2017-11-23T18:07:11.909Z,13.47
2017-11-23T18:09:40.172Z,17.33
2017-11-23T18:12:08.462Z,20.97
2017-11-23T18:14:35.968Z,17.10
2017-11-23T18:17:03.489Z,25.27
2017-11-23T18:19:31.035Z,28.10
2017-11-23T18:21:58.612Z,29.53
2017-11-23T18:24:26.118Z,39.43
2017-11-23T18:26:53.646Z,19.00
2017-11-23T18:29:21.170Z,19.10
2017-11-23T18:31:48.696Z,19.73
2017-11-23T18:34:16.239Z,12.10
2017-11-23T18:36:43.799Z,5.80
2017-11-23T18:39:12.059Z,8.27
2017-11-23T18:41:39.565Z,8.37
2017-11-23T18:44:07.849Z,6.90
2017-11-23T18:46:36.122Z,10.00
2017-11-23T18:49:04.405Z,7.27
2017-11-23T18:51:32.713Z,11.23
2017-11-23T18:54:00.230Z,7.77
2017-11-23T18:56:28.496Z,8.60
2017-11-23T18:58:56.020Z,9.60
2017-11-23T19:01:23.565Z,10.53
2017-11-23T19:03:51.127Z,8.07
2017-11-23T19:06:18.755Z,9.77
2017-11-23T19:08:46.334Z,7.30
2017-11-23T19:11:14.831Z,7.13
2017-11-23T19:13:42.448Z,9.83
2017-11-23T19:16:10.075Z,5.10
2017-11-23T19:18:37.808Z,5.87
2017-11-23T19:21:05.382Z,9.27
2017-11-23T19:23:34.093Z,9.73
2017-11-23T19:26:01.651Z,6.40
2017-11-23T19:28:29.225Z,8.87
2017-11-23T19:30:57.539Z,6.70
2017-11-23T19:33:25.108Z,11.80
2017-11-23T19:35:52.652Z,8.23
2017-11-23T19:38:20.200Z,6.60
2017-11-23T19:40:48.508Z,9.70
2017-11-23T19:43:16.051Z,8.70
2017-11-23T19:45:43.564Z,7.97
2017-11-23T19:48:11.114Z,9.80
2017-11-23T19:50:38.678Z,9.33
2017-11-23T19:53:06.219Z,8.07
2017-11-23T19:55:33.786Z,15.33
2017-11-23T19:58:01.351Z,6.47
2017-11-23T20:00:28.923Z,7.27
2017-11-23T20:02:57.927Z,7.60
2017-11-23T20:05:26.251Z,7.77
2017-11-23T20:07:53.803Z,9.20
2017-11-23T20:10:21.311Z,9.77
2017-11-23T20:12:48.859Z,11.93
2017-11-23T20:15:16.425Z,8.43
2017-11-23T20:17:43.983Z,12.17
2017-11-23T20:20:11.589Z,32.83
2017-11-23T20:22:39.098Z,23.53
2017-11-23T20:25:06.664Z,17.30
2017-11-23T20:27:34.205Z,10.60
2017-11-23T20:30:01.777Z,8.97
2017-11-23T20:32:29.277Z,16.57
2017-11-23T20:34:56.860Z,13.27
2017-11-23T20:37:24.411Z,7.97
2017-11-23T20:39:51.954Z,10.87
2017-11-23T20:42:19.528Z,6.70
2017-11-23T20:44:47.067Z,6.63
2017-11-23T20:47:14.630Z,11.17
2017-11-23T20:49:42.175Z,10.50
2017-11-23T20:52:10.506Z,9.37
2017-11-23T20:54:38.047Z,10.20
2017-11-23T20:57:05.602Z,27.77
2017-11-23T20:59:33.156Z,11.37
2017-11-23T21:02:00.720Z,13.47
2017-11-23T21:04:28.216Z,12.80
2017-11-23T21:06:55.734Z,11.77
2017-11-23T21:09:23.301Z,10.80
2017-11-23T21:11:50.941Z,7.37
2017-11-23T21:14:18.519Z,10.10
2017-11-23T21:16:46.841Z,10.03
2017-11-23T21:19:14.386Z,7.93
2017-11-23T21:21:41.956Z,12.93
2017-11-23T21:24:09.499Z,8.23
2017-11-23T21:26:38.496Z,10.23
2017-11-23T21:29:06.840Z,8.73
2017-11-23T21:31:34.412Z,9.37
2017-11-23T21:34:01.968Z,9.20
2017-11-23T21:36:29.555Z,6.00
2017-11-23T21:38:57.077Z,7.77
2017-11-23T21:41:24.630Z,10.60
2017-11-23T21:43:52.153Z,8.20
2017-11-23T21:46:20.471Z,9.40
2017-11-23T21:48:47.992Z,8.40
2017-11-23T21:51:16.251Z,6.80
2017-11-23T21:53:43.820Z,8.10
2017-11-23T21:56:12.139Z,9.13
2017-11-23T21:58:39.686Z,9.03
2017-11-23T22:01:07.224Z,14.00
2017-11-23T22:03:35.552Z,6.47
2017-11-23T22:06:03.091Z,9.10
2017-11-23T22:08:30.679Z,7.33
2017-11-23T22:10:58.268Z,8.90
2017-11-23T22:13:27.767Z,6.30
2017-11-23T22:15:56.135Z,7.97
2017-11-23T22:18:23.677Z,11.13
2017-11-23T22:20:51.180Z,6.47
2017-11-23T22:23:19.464Z,7.10
2017-11-23T22:25:47.724Z,7.63
2017-11-23T22:28:16.054Z,5.20
2017-11-23T22:30:43.586Z,5.00
2017-11-23T22:33:11.162Z,3.63
2017-11-23T22:35:38.698Z,6.00
2017-11-23T22:38:06.193Z,4.30
2017-11-23T22:40:33.704Z,4.83
2017-11-23T22:43:02.011Z,5.60
2017-11-23T22:45:29.583Z,3.53
2017-11-23T22:47:57.132Z,3.43
2017-11-23T22:50:24.700Z,2.83
2017-11-23T22:52:52.192Z,2.80
2017-11-23T22:55:19.700Z,5.23
2017-11-23T22:57:47.207Z,4.87
2017-11-23T23:00:14.725Z,5.90
2017-11-23T23:02:42.267Z,3.27
2017-11-23T23:05:09.822Z,5.33
2017-11-23T23:07:37.319Z,5.60
2017-11-23T23:10:04.867Z,4.67
2017-11-23T23:12:33.172Z,3.70
2017-11-23T23:15:00.668Z,4.87
2017-11-23T23:17:28.223Z,4.53
2017-11-23T23:19:56.489Z,6.07
2017-11-23T23:22:24.016Z,5.90
2017-11-23T23:24:51.553Z,5.00
2017-11-23T23:27:19.079Z,6.23
2017-11-23T23:29:46.597Z,5.40
2017-11-23T23:32:14.118Z,6.53
2017-11-23T23:34:41.621Z,5.17
2017-11-23T23:37:09.145Z,6.73
2017-11-23T23:39:36.644Z,7.50
2017-11-23T23:42:04.932Z,10.87
2017-11-23T23:44:33.192Z,5.43
2017-11-23T23:47:00.718Z,4.83
2017-11-23T23:49:28.217Z,8.40
2017-11-23T23:51:56.481Z,5.60
2017-11-23T23:54:23.997Z,4.50
2017-11-23T23:56:51.492Z,4.77
2017-11-23T23:59:19.004Z,2.80
